Time;durP1;ratioP1;P1;durP2;ratioP2;P2;SDS_P1;SDS_P2;PMS_P1;PMS_P2;Temp;Humidity;BMP_temperature;BMP_pressure;BME280_temperature;BME280_humidity;BME280_pressure;Samples;Min_cycle;Max_cycle;Signal;HPM_P1;HPM_P2
2022/09/15 00:00:56;;;;;;;4.95;2.78;;;17.30;99.90;;;;;;4992720;28;20027;-72
2022/09/15 00:03:23;;;;;;;7.22;2.80;;;17.30;99.90;;;;;;4989898;28;20026;-71
2022/09/15 00:05:50;;;;;;;12.38;3.88;;;17.20;99.90;;;;;;4992072;28;20026;-72
2022/09/15 00:08:16;;;;;;;8.57;3.10;;;17.20;99.90;;;;;;4991691;28;20050;-71
2022/09/15 00:11:12;;;;;;;11.07;4.03;;;17.20;99.90;;;;;;4991108;28;20144;-72
2022/09/15 00:13:39;;;;;;;7.63;2.42;;;17.20;99.90;;;;;;4988432;28;20074;-72
2022/09/15 00:16:06;;;;;;;8.45;3.10;;;17.20;99.90;;;;;;4988670;28;20072;-72
2022/09/15 00:18:33;;;;;;;8.93;3.50;;;17.20;99.90;;;;;;4988386;28;20037;-71
2022/09/15 00:20:58;;;;;;;11.00;3.03;;;17.20;99.90;;;;;;4987383;28;20146;-71
2022/09/15 00:23:24;;;;;;;9.40;4.88;;;17.10;99.90;;;;;;4992382;28;20046;-71
2022/09/15 00:25:52;;;;;;;9.07;2.08;;;17.10;99.90;;;;;;4989615;28;20499;-71
2022/09/15 00:28:19;;;;;;;14.80;5.57;;;17.00;99.90;;;;;;4976890;28;20154;-70
2022/09/15 00:30:48;;;;;;;8.90;2.67;;;17.10;99.90;;;;;;4978120;28;20022;-72
2022/09/15 00:33:15;;;;;;;6.55;1.70;;;17.00;99.90;;;;;;4993651;28;20237;-72
2022/09/15 00:35:43;;;;;;;7.18;1.65;;;17.10;99.90;;;;;;4987327;28;20043;-71
2022/09/15 00:38:10;;;;;;;8.43;2.45;;;17.00;99.90;;;;;;4991112;28;20038;-72
2022/09/15 00:40:44;;;;;;;2.75;1.50;;;17.10;99.90;;;;;;4989222;28;20033;-73
2022/09/15 00:43:10;;;;;;;5.70;1.60;;;17.10;99.90;;;;;;4974360;28;20027;-70
2022/09/15 00:45:36;;;;;;;7.72;1.23;;;17.00;99.90;;;;;;4973932;28;20019;-70
2022/09/15 00:48:04;;;;;;;4.93;1.15;;;17.00;99.90;;;;;;4985545;28;20022;-70
2022/09/15 00:50:33;;;;;;;16.33;4.25;;;17.00;99.90;;;;;;4991914;28;20018;-71
2022/09/15 00:53:03;;;;;;;3.78;1.08;;;17.00;99.90;;;;;;4973598;28;20133;-71
2022/09/15 00:55:37;;;;;;;8.65;1.38;;;17.10;99.90;;;;;;4974016;28;20580;-71
2022/09/15 00:58:07;;;;;;;7.57;1.20;;;17.10;99.90;;;;;;4973780;28;20029;-72
2022/09/15 01:00:33;;;;;;;6.53;1.35;;;17.10;99.90;;;;;;4974240;28;20018;-73
2022/09/15 01:03:00;;;;;;;5.97;1.20;;;17.10;99.90;;;;;;4973900;28;20114;-72
2022/09/15 01:05:31;;;;;;;9.98;1.85;;;17.20;99.90;;;;;;4974046;28;20101;-72
2022/09/15 01:08:02;;;;;;;7.00;1.45;;;17.10;99.90;;;;;;4973701;28;20457;-71
2022/09/15 01:10:30;;;;;;;8.50;1.92;;;17.20;99.90;;;;;;4981038;28;20065;-71
2022/09/15 01:13:01;;;;;;;5.38;1.65;;;17.30;99.90;;;;;;4991849;28;20058;-71
2022/09/15 01:15:37;;;;;;;10.00;2.30;;;17.20;99.90;;;;;;4992392;28;20102;-72
2022/09/15 01:18:30;;;;;;;7.68;1.88;;;17.30;99.90;;;;;;4995041;28;20030;-72
2022/09/15 01:21:13;;;;;;;7.45;1.17;;;17.30;99.90;;;;;;4989167;28;20077;-71
2022/09/15 01:23:51;;;;;;;5.32;1.95;;;17.30;99.90;;;;;;4992459;28;20081;-71
2022/09/15 01:27:02;;;;;;;6.05;2.03;;;17.40;99.90;;;;;;4992522;28;20042;-71
2022/09/15 01:29:58;;;;;;;6.55;1.55;;;17.30;99.90;;;;;;4951200;29;20031;-71
2022/09/15 01:35:50;;;;;;;3.08;1.02;;;17.40;99.90;;;;;;4977356;28;20041;-71
2022/09/15 01:38:44;;;;;;;2.63;1.05;;;17.40;99.90;;;;;;4992225;28;20064;-71
2022/09/15 01:41:26;;;;;;;3.92;1.45;;;17.40;99.90;;;;;;4992194;28;20026;-71
2022/09/15 01:43:59;;;;;;;;;;;17.40;99.90;;;;;;4993010;28;20029;-72
2022/09/15 01:46:28;;;;;;;4.25;1.40;;;17.40;99.90;;;;;;4995481;28;19960;-72
2022/09/15 01:48:57;;;;;;;5.82;1.25;;;17.40;99.90;;;;;;4996240;28;20054;-72
2022/09/15 01:51:25;;;;;;;6.07;1.90;;;17.40;99.90;;;;;;4980944;28;20384;-72
2022/09/15 01:53:52;;;;;;;8.73;2.65;;;17.40;99.90;;;;;;4996341;28;20022;-70
2022/09/15 01:56:18;;;;;;;10.07;3.58;;;17.40;99.90;;;;;;4996152;28;20022;-71
2022/09/15 01:58:44;;;;;;;5.47;1.48;;;17.40;99.90;;;;;;4996059;28;20077;-70
2022/09/15 02:01:15;;;;;;;7.28;1.73;;;17.40;99.90;;;;;;4996446;28;20077;-71
2022/09/15 02:04:06;;;;;;;5.60;1.42;;;17.40;99.90;;;;;;4996049;28;20045;-72
2022/09/15 02:07:05;;;;;;;5.95;1.75;;;17.40;99.90;;;;;;4989456;28;20029;-72
2022/09/15 02:09:39;;;;;;;6.10;1.80;;;17.40;99.90;;;;;;4981143;28;20415;-71
2022/09/15 02:12:22;;;;;;;5.20;2.05;;;17.40;99.90;;;;;;4995783;28;20042;-71
2022/09/15 02:15:02;;;;;;;4.82;1.65;;;17.40;99.90;;;;;;4995924;28;20030;-71
2022/09/15 02:17:31;;;;;;;2.35;1.40;;;17.40;99.90;;;;;;4981127;28;20130;-70
2022/09/15 02:20:22;;;;;;;5.28;1.90;;;17.40;99.90;;;;;;4995928;28;20065;-71
2022/09/15 02:22:53;;;;;;;6.72;2.10;;;17.50;99.90;;;;;;4981603;28;20042;-70
2022/09/15 02:25:29;;;;;;;5.47;1.70;;;17.50;99.90;;;;;;5009390;28;20014;-70
2022/09/15 02:28:03;;;;;;;3.20;1.60;;;17.50;99.90;;;;;;4996018;28;20026;-72
2022/09/15 02:30:30;;;;;;;7.70;2.60;;;17.50;99.90;;;;;;4994394;28;20065;-70
2022/09/15 02:33:00;;;;;;;6.93;2.67;;;17.50;99.90;;;;;;4995211;28;20031;-72
2022/09/15 02:35:27;;;;;;;9.23;3.25;;;17.50;99.90;;;;;;4980267;28;20435;-71
2022/09/15 02:37:54;;;;;;;7.22;2.60;;;17.50;99.90;;;;;;4995131;28;20424;-72
2022/09/15 02:40:20;;;;;;;7.28;1.15;;;17.50;99.90;;;;;;4995222;28;20416;-72
2022/09/15 02:42:56;;;;;;;9.23;3.45;;;17.50;99.90;;;;;;4995685;28;20039;-71
2022/09/15 02:45:24;;;;;;;9.77;2.55;;;17.50;99.90;;;;;;4979612;28;20034;-71
2022/09/15 02:47:49;;;;;;;3.95;1.38;;;17.50;99.90;;;;;;4995354;28;20034;-71
2022/09/15 02:50:16;;;;;;;5.05;1.20;;;17.50;99.90;;;;;;4995042;28;20038;-70
2022/09/15 02:52:42;;;;;;;6.07;1.75;;;17.50;99.90;;;;;;4995029;28;20049;-73
2022/09/15 02:55:08;;;;;;;3.28;1.33;;;17.50;99.90;;;;;;4995496;28;20034;-71
2022/09/15 02:57:34;;;;;;;12.38;2.22;;;17.60;99.90;;;;;;4995104;28;20022;-70
2022/09/15 03:00:11;;;;;;;4.57;1.38;;;17.60;99.90;;;;;;4995230;28;20026;-71
2022/09/15 03:02:38;;;;;;;4.85;1.35;;;17.60;99.90;;;;;;4995116;28;20027;-71
2022/09/15 03:05:05;;;;;;;8.48;2.60;;;17.60;99.90;;;;;;4994784;28;20030;-71
2022/09/15 03:07:30;;;;;;;9.52;2.92;;;17.60;99.90;;;;;;4995002;28;20023;-71
2022/09/15 03:09:57;;;;;;;6.38;2.28;;;17.60;99.90;;;;;;4995016;28;20444;-70
2022/09/15 03:12:23;;;;;;;6.38;1.55;;;17.60;99.90;;;;;;4994555;28;20495;-72
2022/09/15 03:14:49;;;;;;;12.27;2.92;;;17.60;99.90;;;;;;4993496;28;20046;-70
2022/09/15 03:17:15;;;;;;;5.55;1.52;;;17.60;99.90;;;;;;4993014;28;20822;-73
2022/09/15 03:19:41;;;;;;;7.47;2.17;;;17.60;99.90;;;;;;4994718;28;20026;-71
2022/09/15 03:22:08;;;;;;;6.93;2.40;;;17.60;99.90;;;;;;4994586;28;20109;-72
2022/09/15 03:24:34;;;;;;;2.47;1.23;;;17.50;99.90;;;;;;4994752;28;20018;-70
2022/09/15 03:26:59;;;;;;;5.70;2.13;;;17.50;99.90;;;;;;4998158;28;20030;-72
2022/09/15 03:29:26;;;;;;;4.85;0.95;;;17.50;99.90;;;;;;4994651;28;20026;-72
2022/09/15 03:31:51;;;;;;;5.70;2.08;;;17.40;99.90;;;;;;4994543;28;20026;-72
2022/09/15 03:34:17;;;;;;;5.88;1.80;;;17.40;99.90;;;;;;4993921;28;20038;-70
2022/09/15 03:36:42;;;;;;;8.65;2.00;;;17.40;99.90;;;;;;4993932;28;20036;-72
2022/09/15 03:39:10;;;;;;;4.22;1.73;;;17.30;99.90;;;;;;4994578;28;20049;-71
2022/09/15 03:41:36;;;;;;;9.57;3.00;;;17.40;99.90;;;;;;4994784;28;20030;-72
2022/09/15 03:44:02;;;;;;;6.95;2.35;;;17.40;99.90;;;;;;4994655;28;20026;-73
2022/09/15 03:46:28;;;;;;;8.32;1.77;;;17.30;99.90;;;;;;4994004;28;20058;-71
2022/09/15 03:48:53;;;;;;;6.43;1.35;;;17.30;99.90;;;;;;4994303;28;20445;-70
2022/09/15 03:51:19;;;;;;;8.23;2.25;;;17.40;99.90;;;;;;4993907;28;20014;-72
2022/09/15 03:53:45;;;;;;;5.80;1.42;;;17.40;99.90;;;;;;4994103;28;20034;-72
2022/09/15 03:56:16;;;;;;;7.78;2.47;;;17.40;99.90;;;;;;4993954;28;20027;-70
2022/09/15 03:58:41;;;;;;;5.10;0.95;;;17.30;99.90;;;;;;4994078;28;20037;-72
2022/09/15 04:01:07;;;;;;;7.47;1.50;;;17.30;99.90;;;;;;4994011;28;20026;-71
2022/09/15 04:03:33;;;;;;;3.40;1.15;;;17.30;99.90;;;;;;4993934;28;20026;-71
2022/09/15 04:05:59;;;;;;;6.78;1.33;;;17.30;99.90;;;;;;4993802;28;20037;-71
2022/09/15 04:08:24;;;;;;;6.53;1.67;;;17.20;99.90;;;;;;4992747;28;20045;-71
2022/09/15 04:10:50;;;;;;;7.72;2.80;;;17.30;99.90;;;;;;4993553;28;20030;-71
2022/09/15 04:13:15;;;;;;;9.98;2.55;;;17.20;99.90;;;;;;4993654;28;20105;-70
2022/09/15 04:15:42;;;;;;;6.45;1.85;;;17.20;99.90;;;;;;4993569;28;20195;-71
2022/09/15 04:18:07;;;;;;;7.05;1.40;;;17.20;99.90;;;;;;4993650;28;20101;-71
2022/09/15 04:20:33;;;;;;;3.60;1.10;;;17.20;99.90;;;;;;4993910;28;20105;-72
2022/09/15 04:22:58;;;;;;;6.18;1.48;;;17.30;99.90;;;;;;4992713;28;20038;-70
2022/09/15 04:25:26;;;;;;;5.25;1.30;;;17.30;99.90;;;;;;4993665;28;20045;-71
2022/09/15 04:27:52;;;;;;;9.70;1.83;;;17.30;99.90;;;;;;4993650;28;20026;-70
2022/09/15 04:30:18;;;;;;;9.45;2.58;;;17.30;99.90;;;;;;4992881;28;20352;-71
2022/09/15 04:32:43;;;;;;;6.68;1.38;;;17.30;99.90;;;;;;4996975;28;20029;-71
2022/09/15 04:35:09;;;;;;;6.18;1.52;;;17.30;99.90;;;;;;4993224;28;20412;-71
2022/09/15 04:37:35;;;;;;;7.85;1.60;;;17.20;99.90;;;;;;4993272;28;20137;-71
2022/09/15 04:40:00;;;;;;;7.30;1.30;;;17.20;99.90;;;;;;4993554;28;20022;-72
2022/09/15 04:42:26;;;;;;;8.93;1.35;;;17.20;99.90;;;;;;4993762;28;20023;-71
2022/09/15 04:44:52;;;;;;;7.05;1.30;;;17.10;99.90;;;;;;4991551;28;20030;-72
2022/09/15 04:47:18;;;;;;;6.00;1.63;;;17.10;99.90;;;;;;4993079;28;20118;-72
2022/09/15 04:49:44;;;;;;;6.50;1.23;;;17.00;99.90;;;;;;4989320;28;20023;-73
2022/09/15 04:52:10;;;;;;;7.22;1.45;;;17.00;99.90;;;;;;4984386;28;20053;-72
2022/09/15 04:54:36;;;;;;;5.70;1.40;;;17.00;99.90;;;;;;4992884;28;20042;-71
2022/09/15 04:57:02;;;;;;;9.27;1.60;;;16.90;99.90;;;;;;4993157;28;20065;-71
2022/09/15 04:59:27;;;;;;;5.18;1.48;;;16.90;99.90;;;;;;4992761;28;20419;-71
2022/09/15 05:01:54;;;;;;;9.15;2.30;;;16.90;99.90;;;;;;4992648;28;20034;-72
2022/09/15 05:04:20;;;;;;;5.80;1.17;;;16.90;99.90;;;;;;4993286;28;20469;-72
2022/09/15 05:06:46;;;;;;;8.88;1.80;;;16.90;99.90;;;;;;4993029;28;20465;-73
2022/09/15 05:09:12;;;;;;;6.45;1.40;;;16.90;99.90;;;;;;4992801;28;20026;-72
2022/09/15 05:11:38;;;;;;;7.60;1.65;;;16.90;99.90;;;;;;4992745;28;20038;-71
2022/09/15 05:14:05;;;;;;;12.98;3.00;;;16.90;99.90;;;;;;4992211;28;20165;-72
2022/09/15 05:16:30;;;;;;;9.80;2.53;;;16.90;99.90;;;;;;4992847;28;20026;-72
2022/09/15 05:18:58;;;;;;;9.10;2.80;;;16.90;99.90;;;;;;4992659;28;20026;-71
2022/09/15 05:21:25;;;;;;;6.75;1.70;;;16.90;99.90;;;;;;4992403;28;20026;-70
2022/09/15 05:23:51;;;;;;;3.95;1.25;;;16.90;99.90;;;;;;4992827;28;20121;-70
2022/09/15 05:26:19;;;;;;;10.98;2.67;;;16.80;99.90;;;;;;4992865;28;20441;-72
2022/09/15 05:28:45;;;;;;;6.57;1.95;;;16.80;99.90;;;;;;4993051;28;20030;-71
2022/09/15 05:31:25;;;;;;;3.47;0.90;;;16.80;99.90;;;;;;4992734;28;20053;-72
2022/09/15 05:33:51;;;;;;;9.55;1.55;;;16.80;99.90;;;;;;4977099;28;20030;-72
2022/09/15 05:36:20;;;;;;;9.68;1.30;;;16.90;99.90;;;;;;4991255;28;20526;-73
2022/09/15 05:38:45;;;;;;;6.15;1.60;;;16.90;99.90;;;;;;4992642;28;20026;-72
2022/09/15 05:41:14;;;;;;;7.78;1.40;;;16.90;99.90;;;;;;4992667;28;20105;-72
2022/09/15 05:43:40;;;;;;;11.95;2.40;;;16.90;99.90;;;;;;4976663;28;20046;-72
2022/09/15 05:46:06;;;;;;;12.60;2.42;;;17.00;99.90;;;;;;4991946;28;20061;-71
2022/09/15 05:48:33;;;;;;;12.23;2.60;;;17.00;99.90;;;;;;4992332;28;20022;-71
2022/09/15 05:50:59;;;;;;;13.15;2.13;;;17.10;99.90;;;;;;4992617;28;20069;-71
2022/09/15 05:53:25;;;;;;;12.07;2.67;;;17.10;99.90;;;;;;5003870;28;20031;-71
2022/09/15 05:55:59;;;;;;;12.18;2.40;;;17.10;99.90;;;;;;4992276;28;20034;-70
2022/09/15 05:58:26;;;;;;;8.05;1.60;;;17.10;99.90;;;;;;4992391;28;20032;-71
2022/09/15 06:00:52;;;;;;;10.73;2.22;;;17.10;99.90;;;;;;4992428;28;20073;-72
2022/09/15 06:03:19;;;;;;;11.27;1.95;;;17.10;99.90;;;;;;4992069;28;20111;-72
2022/09/15 06:05:44;;;;;;;9.40;1.90;;;17.00;99.90;;;;;;4992546;28;20030;-71
2022/09/15 06:08:11;;;;;;;16.15;2.08;;;17.00;99.90;;;;;;4992195;28;20109;-71
2022/09/15 06:10:37;;;;;;;7.88;2.15;;;17.00;99.90;;;;;;4992330;28;20026;-71
2022/09/15 06:13:02;;;;;;;8.75;1.88;;;17.00;99.90;;;;;;4992378;28;20022;-71
2022/09/15 06:15:28;;;;;;;6.28;1.52;;;17.00;99.90;;;;;;4992013;28;20100;-72
2022/09/15 06:17:54;;;;;;;5.80;1.70;;;17.10;99.90;;;;;;4992161;28;20030;-71
2022/09/15 06:20:20;;;;;;;8.48;1.45;;;17.10;99.90;;;;;;4992647;28;20025;-70
2022/09/15 06:22:45;;;;;;;8.73;1.92;;;17.10;99.90;;;;;;4992038;28;20038;-71
2022/09/15 06:25:12;;;;;;;12.50;2.45;;;17.20;99.90;;;;;;4992566;28;20027;-70
2022/09/15 06:27:38;;;;;;;10.20;1.55;;;17.30;99.90;;;;;;4991990;28;20010;-72
2022/09/15 06:30:04;;;;;;;10.02;1.52;;;17.30;99.90;;;;;;4992069;28;20015;-72
2022/09/15 06:32:30;;;;;;;6.50;1.85;;;17.40;99.90;;;;;;4982708;28;20043;-72
2022/09/15 06:34:55;;;;;;;8.30;1.70;;;17.50;99.90;;;;;;4983637;28;20042;-72
2022/09/15 06:37:21;;;;;;;7.97;2.10;;;17.60;99.90;;;;;;4979768;28;20037;-71
2022/09/15 06:39:47;;;;;;;9.43;1.65;;;17.60;99.90;;;;;;4985800;28;20117;-71
2022/09/15 06:42:12;;;;;;;12.02;1.90;;;17.70;99.90;;;;;;4976900;28;20062;-71
2022/09/15 06:44:38;;;;;;;8.25;1.55;;;17.80;99.90;;;;;;4982981;28;20106;-72
2022/09/15 06:47:04;;;;;;;4.10;1.05;;;17.90;99.90;;;;;;4980362;28;20144;-72
2022/09/15 06:49:30;;;;;;;8.38;1.42;;;18.10;99.90;;;;;;4989561;28;20479;-72
2022/09/15 06:52:01;;;;;;;5.22;1.05;;;18.20;99.90;;;;;;4983979;28;20035;-72
2022/09/15 06:54:26;;;;;;;8.43;1.30;;;18.20;99.90;;;;;;4986054;28;20459;-72
2022/09/15 06:56:52;;;;;;;5.63;1.10;;;18.30;99.90;;;;;;4979386;28;20038;-70
2022/09/15 06:59:19;;;;;;;2.97;0.93;;;18.40;99.90;;;;;;4983367;28;20050;-72
2022/09/15 07:01:44;;;;;;;4.60;1.20;;;18.40;99.90;;;;;;4989836;28;20037;-72
2022/09/15 07:04:10;;;;;;;5.18;1.00;;;18.50;99.90;;;;;;4988265;28;20027;-71
2022/09/15 07:06:37;;;;;;;4.00;1.30;;;18.60;99.90;;;;;;4978230;28;20110;-71
2022/09/15 07:09:04;;;;;;;5.93;1.23;;;18.50;99.90;;;;;;4988528;28;20058;-71
2022/09/15 07:11:31;;;;;;;10.50;1.42;;;18.50;99.90;;;;;;4982530;28;20042;-70
2022/09/15 07:13:58;;;;;;;4.10;1.20;;;18.30;99.90;;;;;;4989220;28;20038;-69
2022/09/15 07:16:27;;;;;;;8.65;1.08;;;18.00;99.90;;;;;;4985705;28;20027;-70
2022/09/15 07:18:55;;;;;;;9.77;1.55;;;17.70;99.90;;;;;;4986397;28;20026;-69
2022/09/15 07:21:21;;;;;;;5.07;1.05;;;17.50;99.90;;;;;;4978184;28;20374;-69
2022/09/15 07:23:48;;;;;;;7.15;1.30;;;17.40;99.90;;;;;;4985684;28;20022;-70
2022/09/15 07:26:19;;;;;;;10.80;1.38;;;17.30;99.90;;;;;;4981542;28;20134;-70
2022/09/15 07:28:48;;;;;;;7.35;1.40;;;17.30;99.90;;;;;;4979015;28;20033;-67
2022/09/15 07:31:16;;;;;;;8.02;1.33;;;17.20;99.90;;;;;;4982123;28;20413;-67
2022/09/15 07:33:42;;;;;;;6.90;1.35;;;17.10;99.90;;;;;;4982279;28;20030;-69
2022/09/15 07:36:08;;;;;;;7.38;1.10;;;17.00;99.90;;;;;;4982775;28;20105;-69
2022/09/15 07:38:38;;;;;;;5.35;1.15;;;16.90;99.90;;;;;;4975322;28;20030;-70
2022/09/15 07:41:05;;;;;;;11.10;1.27;;;16.70;99.90;;;;;;4976244;28;20038;-69
2022/09/15 07:43:31;;;;;;;7.47;1.23;;;16.60;99.90;;;;;;4974633;28;20090;-71
2022/09/15 07:45:58;;;;;;;5.22;1.23;;;16.50;99.90;;;;;;4981861;28;20073;-70
2022/09/15 07:48:23;;;;;;;5.78;1.30;;;16.50;99.90;;;;;;4975206;28;20465;-69
2022/09/15 07:50:49;;;;;;;5.93;1.13;;;16.50;99.90;;;;;;4984699;28;20072;-71
2022/09/15 07:53:15;;;;;;;8.82;1.58;;;16.50;99.90;;;;;;4994933;28;20034;-73
2022/09/15 07:55:40;;;;;;;10.23;1.88;;;16.70;99.90;;;;;;4982488;28;20018;-74
2022/09/15 07:58:06;;;;;;;4.57;0.90;;;16.80;99.90;;;;;;4975447;28;20169;-73
2022/09/15 08:00:32;;;;;;;3.13;0.88;;;17.00;99.90;;;;;;4978976;28;20130;-73
2022/09/15 08:02:57;;;;;;;4.75;1.20;;;17.30;99.90;;;;;;4986578;28;20105;-71
2022/09/15 08:05:26;;;;;;;5.65;0.82;;;17.60;99.90;;;;;;4983062;28;20161;-72
2022/09/15 08:07:56;;;;;;;7.40;1.25;;;17.90;99.90;;;;;;4986684;28;20034;-71
2022/09/15 08:10:25;;;;;;;9.35;1.27;;;18.20;99.90;;;;;;4992384;28;20019;-72
2022/09/15 08:12:51;;;;;;;5.88;1.02;;;18.50;99.90;;;;;;4990305;28;20109;-72
2022/09/15 08:15:17;;;;;;;5.28;0.80;;;18.80;99.90;;;;;;4990263;28;20037;-71
2022/09/15 08:17:43;;;;;;;9.35;1.20;;;19.00;99.90;;;;;;4984133;28;20416;-72
2022/09/15 08:20:09;;;;;;;7.40;1.27;;;19.10;99.90;;;;;;4992327;28;20022;-70
2022/09/15 08:22:35;;;;;;;3.88;1.08;;;19.10;99.90;;;;;;4993749;28;20085;-71
2022/09/15 08:25:01;;;;;;;4.90;0.95;;;19.20;99.90;;;;;;4992009;28;20357;-71
2022/09/15 08:27:26;;;;;;;5.30;0.90;;;19.30;99.90;;;;;;4994058;28;20018;-72
2022/09/15 08:29:52;;;;;;;5.40;0.77;;;19.30;99.80;;;;;;4980018;28;20019;-74
2022/09/15 08:32:18;;;;;;;6.63;1.10;;;19.30;99.20;;;;;;4987392;28;20068;-71
2022/09/15 08:34:44;;;;;;;8.27;1.30;;;19.50;98.70;;;;;;4990432;28;20045;-71
2022/09/15 08:37:10;;;;;;;7.07;1.20;;;19.60;98.00;;;;;;4992830;28;20110;-72
2022/09/15 08:39:35;;;;;;;4.85;0.70;;;19.70;97.30;;;;;;4983290;28;20114;-73
2022/09/15 08:42:01;;;;;;;5.35;1.15;;;19.80;97.20;;;;;;4974158;28;20026;-71
2022/09/15 08:44:48;;;;;;;8.88;0.90;;;19.90;97.20;;;;;;4981706;28;20055;-70
2022/09/15 08:47:32;;;;;;;4.25;0.95;;;20.00;96.60;;;;;;4992115;28;20050;-73
2022/09/15 08:49:58;;;;;;;4.50;1.02;;;20.10;96.30;;;;;;4981367;28;20033;-72
2022/09/15 08:52:49;;;;;;;10.80;1.20;;;20.20;96.20;;;;;;4974179;28;20109;-75
2022/09/15 08:55:22;;;;;;;6.97;1.20;;;20.40;96.20;;;;;;4975339;28;20113;-71
2022/09/15 08:57:51;;;;;;;3.85;0.70;;;20.60;96.10;;;;;;4974083;28;20027;-74
2022/09/15 09:00:16;;;;;;;4.43;0.80;;;20.70;95.40;;;;;;4984331;28;20035;-73
2022/09/15 09:03:19;;;;;;;10.13;1.33;;;20.70;94.80;;;;;;4975694;28;20027;-71
2022/09/15 09:05:54;;;;;;;6.60;1.33;;;20.80;94.80;;;;;;4974625;28;20031;-72
2022/09/15 09:08:59;;;;;;;5.57;1.40;;;21.00;94.30;;;;;;4974145;28;20110;-72
2022/09/15 09:11:50;;;;;;;8.60;1.38;;;21.80;93.30;;;;;;4973556;28;20057;-71
2022/09/15 09:14:37;;;;;;;6.50;1.35;;;22.80;92.40;;;;;;4974864;28;20070;-70
2022/09/15 09:17:24;;;;;;;8.27;1.48;;;23.30;91.20;;;;;;4972567;28;20370;-72
2022/09/15 09:20:13;;;;;;;8.30;1.50;;;23.30;90.40;;;;;;4977200;28;20033;-73
2022/09/15 09:22:42;;;;;;;5.20;0.90;;;23.20;90.30;;;;;;4976520;28;20063;-72
2022/09/15 09:25:13;;;;;;;5.18;0.95;;;23.20;90.60;;;;;;4991642;28;20065;-72
2022/09/15 09:27:39;;;;;;;5.75;1.40;;;23.50;90.10;;;;;;4992982;28;20025;-71
2022/09/15 09:30:20;;;;;;;7.65;1.52;;;23.80;89.80;;;;;;4992934;28;20365;-70
2022/09/15 09:33:07;;;;;;;3.63;1.30;;;24.00;87.40;;;;;;4993021;28;20033;-73
2022/09/15 09:35:41;;;;;;;8.70;1.30;;;23.90;86.80;;;;;;4992550;28;20522;-71
2022/09/15 09:38:09;;;;;;;4.07;1.60;;;23.80;85.90;;;;;;4992714;28;20085;-72
2022/09/15 09:40:36;;;;;;;3.08;1.00;;;23.90;86.40;;;;;;4990174;28;20026;-69
2022/09/15 09:43:01;;;;;;;6.40;1.23;;;24.00;85.30;;;;;;4976260;28;20034;-70
2022/09/15 09:45:27;;;;;;;3.85;1.02;;;24.10;84.80;;;;;;4992254;28;20038;-71
2022/09/15 09:47:58;;;;;;;3.13;1.48;;;24.10;85.40;;;;;;4992557;28;20452;-71
2022/09/15 09:50:41;;;;;;;5.68;1.17;;;24.40;85.70;;;;;;4992464;28;20141;-70
2022/09/15 09:53:41;;;;;;;6.60;1.48;;;25.10;84.40;;;;;;4990881;28;20031;-72
2022/09/15 09:56:24;;;;;;;8.38;1.25;;;25.20;84.90;;;;;;4979437;28;20034;-71
2022/09/15 09:58:51;;;;;;;6.30;1.95;;;24.90;85.50;;;;;;4985371;28;20036;-69
2022/09/15 10:01:19;;;;;;;10.05;2.15;;;24.60;84.80;;;;;;4988490;28;20080;-71
2022/09/15 10:03:45;;;;;;;5.35;1.17;;;24.40;85.00;;;;;;4979245;28;20030;-71
2022/09/15 10:06:21;;;;;;;9.55;1.75;;;24.10;85.60;;;;;;4981606;28;20015;-70
2022/09/15 10:08:58;;;;;;;6.85;1.20;;;24.00;86.30;;;;;;4988696;28;20022;-70
2022/09/15 10:11:44;;;;;;;7.85;1.25;;;23.90;85.20;;;;;;4993449;28;20069;-71
2022/09/15 10:14:25;;;;;;;6.85;1.08;;;24.00;84.60;;;;;;4985213;28;20046;-71
2022/09/15 10:17:05;;;;;;;2.95;0.85;;;24.30;83.30;;;;;;4984085;28;20033;-72
2022/09/15 10:19:33;;;;;;;3.47;0.90;;;24.90;81.50;;;;;;4988462;28;20461;-71
2022/09/15 10:22:00;;;;;;;3.83;0.60;;;25.60;79.40;;;;;;4989695;28;20117;-69
2022/09/15 10:24:26;;;;;;;3.63;0.68;;;26.50;76.70;;;;;;4983655;28;20075;-73
2022/09/15 10:27:04;;;;;;;3.08;0.75;;;27.50;73.70;;;;;;4981602;28;20405;-71
2022/09/15 10:29:37;;;;;;;3.65;0.90;;;28.20;71.50;;;;;;4976738;28;20054;-69
2022/09/15 10:32:35;;;;;;;3.03;0.80;;;28.90;69.50;;;;;;4977548;28;20034;-70
2022/09/15 10:35:12;;;;;;;1.70;0.60;;;29.50;67.20;;;;;;4974676;28;20050;-71
2022/09/15 10:37:58;;;;;;;2.05;0.60;;;29.90;67.20;;;;;;4979688;28;20026;-70
2022/09/15 10:40:36;;;;;;;7.65;1.27;;;30.20;67.10;;;;;;4979984;28;20473;-70
2022/09/15 10:43:23;;;;;;;6.57;0.90;;;30.30;67.50;;;;;;4993558;28;20103;-71
2022/09/15 10:45:59;;;;;;;4.63;1.20;;;30.30;67.60;;;;;;4992617;28;20022;-72
2022/09/15 10:48:47;;;;;;;5.55;1.40;;;30.70;67.40;;;;;;4988608;28;20025;-73
2022/09/15 10:51:29;;;;;;;6.68;1.13;;;30.70;67.40;;;;;;4986524;28;20030;-71
2022/09/15 10:54:00;;;;;;;6.57;1.10;;;30.70;66.40;;;;;;4986577;28;20038;-72
2022/09/15 10:56:39;;;;;;;5.18;0.88;;;30.80;66.60;;;;;;4987432;28;20460;-73
2022/09/15 10:59:33;;;;;;;6.57;1.10;;;30.80;65.50;;;;;;4990594;28;20377;-72
2022/09/15 11:02:26;;;;;;;6.00;0.90;;;30.80;65.30;;;;;;4995229;28;20022;-72
2022/09/15 11:05:16;;;;;;;4.25;0.85;;;30.70;65.00;;;;;;4986946;28;20031;-74
2022/09/15 11:08:04;;;;;;;5.45;1.05;;;31.00;63.90;;;;;;4988763;28;20033;-71
2022/09/15 11:11:02;;;;;;;3.95;0.95;;;31.00;63.10;;;;;;4990975;28;20033;-71
2022/09/15 11:14:05;;;;;;;4.75;1.50;;;31.10;62.00;;;;;;4990141;28;20077;-72
2022/09/15 11:16:33;;;;;;;2.97;0.85;;;31.10;61.60;;;;;;4963165;28;20026;-71
2022/09/15 11:19:36;;;;;;;5.85;0.90;;;31.00;60.80;;;;;;4986620;28;20031;-71
2022/09/15 11:22:07;;;;;;;4.28;0.70;;;31.10;61.60;;;;;;4988441;28;20110;-72
2022/09/15 11:24:50;;;;;;;7.22;0.93;;;30.70;63.00;;;;;;4994838;28;20046;-71
2022/09/15 11:27:24;;;;;;;4.68;0.98;;;29.90;64.20;;;;;;4994958;28;20029;-73
2022/09/15 11:30:01;;;;;;;9.27;1.80;;;28.90;65.30;;;;;;4995052;28;20029;-66
2022/09/15 11:32:33;;;;;;;6.95;1.20;;;27.80;76.60;;;;;;4980502;28;20105;-71
2022/09/15 11:35:21;;;;;;;11.20;1.20;;;26.40;82.70;;;;;;4994371;28;20472;-70
2022/09/15 11:37:50;;;;;;;8.32;1.40;;;24.90;87.40;;;;;;4987664;28;20034;-70
2022/09/15 11:40:38;;;;;;;6.85;1.13;;;23.90;90.90;;;;;;4979355;28;20049;-71
2022/09/15 11:43:20;;;;;;;10.88;1.48;;;23.30;92.80;;;;;;4993309;28;20054;-72
2022/09/15 11:45:54;;;;;;;7.70;1.02;;;23.00;93.50;;;;;;4993028;28;20077;-72
2022/09/15 11:48:27;;;;;;;4.50;1.25;;;22.70;92.70;;;;;;4991638;28;20364;-72
2022/09/15 11:50:56;;;;;;;9.18;1.17;;;22.60;92.30;;;;;;4992955;28;20029;-72
2022/09/15 11:53:52;;;;;;;10.68;1.02;;;22.60;92.50;;;;;;4994241;28;20113;-72
2022/09/15 11:56:40;;;;;;;7.95;1.00;;;23.10;92.80;;;;;;4983191;28;20458;-73
2022/09/15 11:59:40;;;;;;;4.38;1.20;;;23.70;91.20;;;;;;4976734;28;20309;-72
2022/09/15 12:02:19;;;;;;;5.82;0.90;;;23.70;90.00;;;;;;4986684;28;20113;-75
2022/09/15 12:05:19;;;;;;;7.88;1.33;;;23.30;89.90;;;;;;4973514;28;20105;-72
2022/09/15 12:07:52;;;;;;;6.28;1.52;;;23.10;90.20;;;;;;4973055;28;20134;-72
2022/09/15 12:10:22;;;;;;;5.72;0.93;;;23.60;89.40;;;;;;4973077;28;20377;-74
2022/09/15 12:12:50;;;;;;;8.02;1.10;;;24.00;88.80;;;;;;4981151;28;20055;-72
2022/09/15 12:15:19;;;;;;;8.20;1.20;;;23.80;88.30;;;;;;4992901;28;20503;-73
2022/09/15 12:17:53;;;;;;;5.22;1.15;;;23.60;88.60;;;;;;4993839;28;20025;-72
2022/09/15 12:20:24;;;;;;;9.85;1.38;;;23.50;88.90;;;;;;4989867;28;20038;-72
2022/09/15 12:22:55;;;;;;;8.52;1.20;;;23.30;89.70;;;;;;4992304;28;20022;-71
2022/09/15 12:25:40;;;;;;;5.88;1.33;;;23.10;90.20;;;;;;4982596;28;20030;-73
2022/09/15 12:28:20;;;;;;;5.70;1.08;;;23.00;90.00;;;;;;4981856;28;20026;-72
2022/09/15 12:30:46;;;;;;;6.00;0.95;;;22.90;89.90;;;;;;4977235;28;20041;-74
2022/09/15 12:33:49;;;;;;;4.90;0.75;;;22.90;90.00;;;;;;4990149;28;20023;-71
2022/09/15 12:36:41;;;;;;;4.68;1.00;;;22.90;88.90;;;;;;4981684;28;20122;-71
2022/09/15 12:39:30;;;;;;;4.07;0.80;;;23.00;87.60;;;;;;4991722;28;20061;-71
2022/09/15 12:42:04;;;;;;;7.65;1.00;;;23.10;87.00;;;;;;4991674;28;20043;-72
2022/09/15 12:44:41;;;;;;;5.25;0.85;;;23.20;86.00;;;;;;4985863;28;20468;-70
2022/09/15 12:47:28;;;;;;;8.07;1.30;;;23.50;84.90;;;;;;4984337;28;20029;-72
2022/09/15 12:49:59;;;;;;;5.63;1.10;;;24.20;83.80;;;;;;4991666;28;20030;-71
2022/09/15 12:52:25;;;;;;;;;;;24.90;82.10;;;;;;4993507;28;20026;-71
2022/09/15 12:55:00;;;;;;;5.72;0.63;;;25.20;80.90;;;;;;4992648;28;20244;-70
2022/09/15 12:57:32;;;;;;;6.28;1.00;;;25.20;80.70;;;;;;4991595;28;20444;-73
2022/09/15 13:00:33;;;;;;;3.65;1.00;;;25.10;82.20;;;;;;4993105;28;20429;-74
2022/09/15 13:03:01;;;;;;;3.83;1.00;;;24.90;83.80;;;;;;4993184;28;20029;-70
2022/09/15 13:05:46;;;;;;;5.07;0.80;;;24.60;83.40;;;;;;4979991;28;20030;-72
2022/09/15 13:08:24;;;;;;;7.00;0.90;;;24.60;82.30;;;;;;4989646;28;20026;-71
2022/09/15 13:11:08;;;;;;;2.85;0.70;;;24.70;81.10;;;;;;4992540;28;20033;-73
2022/09/15 13:13:46;;;;;;;4.72;0.70;;;24.80;78.60;;;;;;4991692;28;20096;-72